Pagina principale
METAR-TAF:

METAR-TAF

Aeroporti :

Makassar, Sulawesi Meridionale, Indonesia

latitudine: 05-04S, longitudine: 119-33E, altezza: 14 m

Osservazione

Il bollettino è stato emesso 19 minuti fa, alle 20:00 UTC
Vento 1 kt da est/nord-est
Temperature 22°C
Umidità 100%
Pressione 1010 hPa
Visibilità 10 km o più

METAR: WAAA 262000Z AUTO 07001KT 9999 NCD 22/22 Q1010

Ora: 03:19 (20:19 UTC)

Previsione

Il bollettino è stato emesso 3 ore e 19 minuti fa, alle 17:00 UTC
Previsione valida dal 26 alle 18 UTC al 28 alle 00 UTC
Vento 4 kt da sud-ovest
Visibilità: 8000 m
Poco nuvoloso ad un'altezza di 2000 ft
Evoluzione graduale
dal 26 alle 20 UTC al 26 alle 21 UTC
Visibilità 10 km o più
Evoluzione graduale
dal 27 alle 02 UTC al 27 alle 04 UTC
Vento 10 kt da est/nord-est
Evoluzione graduale
dal 27 alle 06 UTC al 27 alle 08 UTC
Vento 4 kt da nord-ovest

TAF: WAAA 261700Z 2618/2800 22004KT 8000 FEW020 BECMG 2620/2621 9999 BECMG 2702/2704 06010KT BECMG 2706/2708 32004KT

Osservazioni e previsioni meteorologiche di più di 4000 aeroporti (messaggi METAR e TAF).

Le stazioni disponibili sono rappresentate dai dischi gialli e rossi sulla carta.

Puntare il mouse per vedere il nome della stazione.

Clicca sopra per visualizzare le osservazioni e previsioni meteorologiche.

Per cambiare la mappa : fare clic sui pulsanti verdi con una croce nera per ingrandire, il pulsante verde con un trattino per diminuire, o sulla freccia verde per le mappe adiacenti.


METAR-TAF: